Time;durP1;ratioP1;P1;durP2;ratioP2;P2;SDS_P1;SDS_P2;PMS_P1;PMS_P2;Temp;Humidity;BMP_temperature;BMP_pressure;BME280_temperature;BME280_humidity;BME280_pressure;Samples;Min_cycle;Max_cycle;Signal;HPM_P1;HPM_P2
2022/06/08 00:03:11;;;;;;;;;;;26.20;28.70;;;;;;21257596;27;19924;-68
2022/06/08 00:13:14;;;;;;;;;;;26.20;29.00;;;;;;21257121;27;19955;-66
2022/06/08 00:23:16;;;;;;;;;;;26.00;29.10;;;;;;21256812;27;19980;-66
2022/06/08 00:33:17;;;;;;;;;;;25.90;29.30;;;;;;21256397;27;19923;-66
2022/06/08 00:43:19;;;;;;;;;;;25.70;29.60;;;;;;21256681;27;19924;-66
2022/06/08 00:53:30;;;;;;;;;;;25.60;29.80;;;;;;21254835;27;19924;-67
2022/06/08 01:03:31;;;;;;;;;;;25.40;30.60;;;;;;21254026;27;19930;-67
2022/06/08 01:13:34;;;;;;;;;;;25.30;31.50;;;;;;21257874;27;19969;-67
2022/06/08 01:23:36;;;;;;;;;;;25.10;33.20;;;;;;21258182;27;19965;-66
2022/06/08 01:33:49;;;;;;;;;;;25.00;35.60;;;;;;21254320;27;19966;-67
2022/06/08 01:43:55;;;;;;;;;;;24.90;37.80;;;;;;21251852;27;19923;-68
2022/06/08 01:54:18;;;;;;;;;;;24.70;39.00;;;;;;21250748;27;19933;-67
2022/06/08 02:04:21;;;;;;;;;;;24.70;39.80;;;;;;21250476;27;19923;-65
2022/06/08 02:14:28;;;;;;;;;;;24.60;40.30;;;;;;21249193;27;19924;-66
2022/06/08 02:24:52;;;;;;;;;;;24.40;41.90;;;;;;21247808;27;19923;-67
2022/06/08 02:34:55;;;;;;;;;;;24.30;42.50;;;;;;21246530;27;19927;-65
2022/06/08 02:45:01;;;;;;;;;;;24.10;43.60;;;;;;21248155;28;20443;-65
2022/06/08 02:55:05;;;;;;;;;;;24.10;44.10;;;;;;21246833;28;19946;-66
2022/06/08 03:05:19;;;;;;;;;;;24.00;44.50;;;;;;21245469;28;19930;-66
2022/06/08 03:15:23;;;;;;;;;;;23.80;45.00;;;;;;21245058;28;20422;-65
2022/06/08 03:25:26;;;;;;;;;;;23.70;45.50;;;;;;21245540;28;20399;-66
2022/06/08 03:35:28;;;;;;;;;;;23.60;46.30;;;;;;21251248;27;19931;-66
2022/06/08 03:45:35;;;;;;;;;;;23.50;46.70;;;;;;21259907;27;19931;-66
2022/06/08 03:55:37;;;;;;;;;;;23.40;47.20;;;;;;21259340;27;19946;-66
2022/06/08 04:05:40;;;;;;;;;;;23.40;47.60;;;;;;21257905;27;20105;-65
2022/06/08 04:15:44;;;;;;;;;;;23.30;48.20;;;;;;21256715;27;19927;-66
2022/06/08 04:25:46;;;;;;;;;;;23.30;48.30;;;;;;21237854;27;19930;-67
2022/06/08 04:35:48;;;;;;;;;;;23.20;48.80;;;;;;21255219;27;19959;-66
2022/06/08 04:45:50;;;;;;;;;;;23.20;49.10;;;;;;21253943;27;19934;-64
2022/06/08 04:55:51;;;;;;;;;;;23.20;49.00;;;;;;21254161;27;20317;-67
2022/06/08 05:05:54;;;;;;;;;;;23.20;49.50;;;;;;21254029;27;19924;-65
2022/06/08 05:15:55;;;;;;;;;;;23.20;49.30;;;;;;21252582;27;19923;-66
2022/06/08 05:25:58;;;;;;;;;;;23.20;49.20;;;;;;21251415;27;19923;-65
2022/06/08 05:36:00;;;;;;;;;;;23.30;49.10;;;;;;21250835;27;19923;-65
2022/06/08 05:46:02;;;;;;;;;;;23.30;49.10;;;;;;21249919;27;19923;-65
2022/06/08 05:56:03;;;;;;;;;;;23.30;49.40;;;;;;21248154;27;19971;-66
2022/06/08 06:06:05;;;;;;;;;;;23.40;49.50;;;;;;21249671;27;20294;-65
2022/06/08 06:16:06;;;;;;;;;;;23.40;49.30;;;;;;21247378;27;20302;-66
2022/06/08 06:26:08;;;;;;;;;;;23.60;49.10;;;;;;21247852;27;20235;-67
2022/06/08 06:36:10;;;;;;;;;;;23.70;49.10;;;;;;21247446;27;19949;-68
2022/06/08 06:46:13;;;;;;;;;;;23.80;48.60;;;;;;21247561;28;19931;-65
2022/06/08 06:56:14;;;;;;;;;;;23.80;48.40;;;;;;21247370;28;19924;-67
2022/06/08 07:06:16;;;;;;;;;;;24.00;48.00;;;;;;21255264;27;19927;-68
2022/06/08 07:16:18;;;;;;;;;;;25.00;46.20;;;;;;21262795;27;19976;-67
2022/06/08 07:26:19;;;;;;;;;;;25.30;44.80;;;;;;21261589;27;20013;-66
2022/06/08 07:36:21;;;;;;;;;;;25.70;44.40;;;;;;21259991;27;19923;-68
2022/06/08 07:46:23;;;;;;;;;;;26.50;43.00;;;;;;21260475;27;19923;-64
2022/06/08 07:56:25;;;;;;;;;;;27.10;41.40;;;;;;21259633;27;19930;-65
2022/06/08 08:06:26;;;;;;;;;;;27.60;39.70;;;;;;21257534;27;19924;-64
2022/06/08 08:16:28;;;;;;;;;;;27.60;40.20;;;;;;21251510;27;20095;-61
2022/06/08 08:26:30;;;;;;;;;;;27.70;39.60;;;;;;21255050;27;19934;-69
2022/06/08 08:36:34;;;;;;;;;;;27.70;39.70;;;;;;21254660;27;20212;-71
2022/06/08 08:46:35;;;;;;;;;;;27.80;39.60;;;;;;21256667;27;20011;-59
2022/06/08 08:56:37;;;;;;;;;;;27.90;39.30;;;;;;21254881;27;19934;-65
2022/06/08 09:06:39;;;;;;;;;;;28.00;39.80;;;;;;21253163;27;19966;-61
2022/06/08 09:16:42;;;;;;;;;;;27.90;39.70;;;;;;21250279;27;19978;-58
2022/06/08 09:26:44;;;;;;;;;;;27.60;40.40;;;;;;21233685;27;19955;-65
2022/06/08 09:37:01;;;;;;;;;;;27.80;39.70;;;;;;21191406;27;19924;-62
2022/06/08 09:57:44;;;;;;;;;;;28.10;38.70;;;;;;21250771;27;19923;-63
2022/06/08 10:07:48;;;;;;;;;;;28.20;38.60;;;;;;21250312;27;20010;-64
2022/06/08 10:17:59;;;;;;;;;;;28.20;38.80;;;;;;21249556;27;19931;-64
2022/06/08 10:28:12;;;;;;;;;;;27.80;40.10;;;;;;21247727;27;20274;-63
2022/06/08 10:38:19;;;;;;;;;;;27.80;40.90;;;;;;21246295;27;19924;-64
2022/06/08 10:48:25;;;;;;;;;;;27.80;40.50;;;;;;21244644;27;20276;-64
2022/06/08 10:58:47;;;;;;;;;;;27.80;40.50;;;;;;21227473;28;19924;-64
2022/06/08 11:08:54;;;;;;;;;;;28.00;39.50;;;;;;21245430;28;19930;-63
2022/06/08 11:19:00;;;;;;;;;;;28.10;40.30;;;;;;21244146;28;20343;-65
2022/06/08 11:29:17;;;;;;;;;;;27.90;40.50;;;;;;21245106;28;19974;-63
2022/06/08 11:39:19;;;;;;;;;;;27.80;40.70;;;;;;21246162;28;19931;-65
2022/06/08 11:49:27;;;;;;;;;;;27.90;40.60;;;;;;21243600;28;19961;-64
2022/06/08 11:59:29;;;;;;;;;;;27.70;40.30;;;;;;21243701;27;20287;-61
2022/06/08 12:09:34;;;;;;;;;;;27.80;39.80;;;;;;21245051;27;20065;-64
2022/06/08 12:19:43;;;;;;;;;;;27.90;39.50;;;;;;21215047;27;19959;-65
2022/06/08 12:29:47;;;;;;;;;;;28.00;39.60;;;;;;21256824;27;20018;-71
2022/06/08 12:39:49;;;;;;;;;;;28.10;39.40;;;;;;21263664;27;19953;-66
2022/06/08 12:49:56;;;;;;;;;;;28.20;39.40;;;;;;21255594;27;20030;-64
2022/06/08 12:59:59;;;;;;;;;;;28.20;39.30;;;;;;21254867;27;19930;-70
2022/06/08 13:10:01;;;;;;;;;;;28.30;39.00;;;;;;21254708;27;19927;-65
2022/06/08 13:20:03;;;;;;;;;;;28.30;38.70;;;;;;21254622;27;19923;-63
2022/06/08 13:30:06;;;;;;;;;;;28.30;38.90;;;;;;21252117;27;19927;-64
2022/06/08 13:40:15;;;;;;;;;;;28.60;37.90;;;;;;21251336;27;19958;-65
2022/06/08 13:50:28;;;;;;;;;;;28.80;37.50;;;;;;21250326;27;20340;-65
2022/06/08 14:00:33;;;;;;;;;;;28.60;37.30;;;;;;21248521;27;19924;-66
2022/06/08 14:20:57;;;;;;;;;;;28.90;36.80;;;;;;21247457;27;20298;-64
2022/06/08 14:30:59;;;;;;;;;;;28.90;37.10;;;;;;21247764;27;19924;-64
2022/06/08 14:41:02;;;;;;;;;;;29.00;36.70;;;;;;21248879;27;19934;-64
2022/06/08 14:51:05;;;;;;;;;;;29.00;36.70;;;;;;21246298;28;19931;-63
2022/06/08 15:01:06;;;;;;;;;;;29.10;36.80;;;;;;21245779;28;19924;-65
2022/06/08 15:21:33;;;;;;;;;;;29.50;36.40;;;;;;21245005;28;19938;-65
2022/06/08 15:31:36;;;;;;;;;;;29.40;36.00;;;;;;21251281;27;19931;-66
2022/06/08 15:41:38;;;;;;;;;;;28.90;36.90;;;;;;21260021;27;19923;-63
2022/06/08 15:51:40;;;;;;;;;;;28.90;36.90;;;;;;21257432;27;19967;-64
2022/06/08 16:01:42;;;;;;;;;;;28.70;37.00;;;;;;21257429;27;19927;-65
2022/06/08 16:11:44;;;;;;;;;;;28.70;37.10;;;;;;21257295;27;20359;-59
2022/06/08 16:21:45;;;;;;;;;;;28.30;38.00;;;;;;21255896;27;19924;-57
2022/06/08 16:31:47;;;;;;;;;;;28.10;38.60;;;;;;21253861;27;20023;-60
2022/06/08 16:41:48;;;;;;;;;;;28.00;38.70;;;;;;21254621;27;19944;-59
2022/06/08 16:51:50;;;;;;;;;;;27.80;39.10;;;;;;21254016;27;20004;-63
2022/06/08 17:01:52;;;;;;;;;;;27.90;39.20;;;;;;21234674;27;19923;-60
2022/06/08 17:11:54;;;;;;;;;;;28.00;39.00;;;;;;21233156;27;20328;-60
2022/06/08 17:21:56;;;;;;;;;;;28.20;38.50;;;;;;21250325;27;20337;-67
2022/06/08 17:31:59;;;;;;;;;;;28.20;38.50;;;;;;21249607;27;20056;-66
2022/06/08 17:52:22;;;;;;;;;;;28.10;38.00;;;;;;21248133;27;20029;-61
2022/06/08 18:02:24;;;;;;;;;;;27.90;38.00;;;;;;21248574;27;20367;-61
2022/06/08 18:12:26;;;;;;;;;;;27.90;38.20;;;;;;21247854;27;19964;-57
2022/06/08 18:22:30;;;;;;;;;;;27.90;38.30;;;;;;21248190;27;19946;-60
2022/06/08 18:32:32;;;;;;;;;;;28.10;37.80;;;;;;21247235;27;20289;-63
2022/06/08 18:42:37;;;;;;;;;;;28.20;37.60;;;;;;21247177;27;20447;-65
2022/06/08 18:52:40;;;;;;;;;;;28.10;37.20;;;;;;21244680;28;20286;-66
2022/06/08 19:02:42;;;;;;;;;;;27.90;37.50;;;;;;21245216;27;20015;-63
2022/06/08 19:12:44;;;;;;;;;;;27.70;37.70;;;;;;21258843;27;19931;-66
2022/06/08 19:22:45;;;;;;;;;;;27.70;37.70;;;;;;21260911;27;19923;-63
2022/06/08 19:32:47;;;;;;;;;;;27.60;37.80;;;;;;21260180;27;19923;-59
2022/06/08 19:42:49;;;;;;;;;;;;;;;;;;21260871;27;19984;-68
2022/06/08 19:52:51;;;;;;;;;;;;;;;;;;21259417;27;19924;-70
2022/06/08 20:02:53;;;;;;;;;;;27.70;38.00;;;;;;21258457;27;19930;-69
2022/06/08 20:12:55;;;;;;;;;;;;;;;;;;21258988;27;20003;-69
2022/06/08 20:22:57;;;;;;;;;;;;;;;;;;21257343;27;19924;-64
2022/06/08 20:32:59;;;;;;;;;;;27.40;39.40;;;;;;21257054;27;20019;-70
2022/06/08 20:43:02;;;;;;;;;;;;;;;;;;21250106;27;19932;-66
2022/06/08 20:53:04;;;;;;;;;;;;;;;;;;21254185;27;19946;-69
2022/06/08 21:03:06;;;;;;;;;;;;;;;;;;21253682;27;19923;-67
2022/06/08 21:13:10;;;;;;;;;;;;;;;;;;21253298;27;19931;-68
2022/06/08 21:23:13;;;;;;;;;;;;;;;;;;21234899;27;20397;-70
2022/06/08 21:33:15;;;;;;;;;;;;;;;;;;21250760;27;19923;-67
2022/06/08 21:43:17;;;;;;;;;;;26.90;41.80;;;;;;21256884;27;19923;-69
2022/06/08 21:53:20;;;;;;;;;;;25.60;44.40;;;;;;21263086;27;19931;-62
2022/06/08 22:03:23;;;;;;;;;;;25.70;44.40;;;;;;21275071;27;19927;-67
2022/06/08 22:13:27;;;;;;;;;;;25.30;45.10;;;;;;21284002;27;20327;-64
2022/06/08 22:23:30;;;;;;;;;;;25.20;45.80;;;;;;21247884;27;20328;-67
2022/06/08 22:33:32;;;;;;;;;;;25.10;46.30;;;;;;21246611;27;19977;-69
2022/06/08 22:43:35;;;;;;;;;;;25.00;46.50;;;;;;21246334;27;19927;-69
2022/06/08 22:53:37;;;;;;;;;;;24.90;46.60;;;;;;21246409;28;19927;-66
2022/06/08 23:03:38;;;;;;;;;;;24.80;47.20;;;;;;21227516;28;19931;-70
2022/06/08 23:13:41;;;;;;;;;;;24.60;47.70;;;;;;21228573;28;20068;-66
2022/06/08 23:23:42;;;;;;;;;;;24.40;48.30;;;;;;21246276;28;19969;-67
2022/06/08 23:33:44;;;;;;;;;;;24.50;48.50;;;;;;21226339;28;19924;-68
2022/06/08 23:43:45;;;;;;;;;;;24.10;49.40;;;;;;21245100;28;19967;-64
2022/06/08 23:53:48;;;;;;;;;;;23.90;49.80;;;;;;21253674;27;19930;-67
